Time;durP1;ratioP1;P1;durP2;ratioP2;P2;SDS_P1;SDS_P2;PMS_P1;PMS_P2;Temp;Humidity;BMP_temperature;BMP_pressure;BME280_temperature;BME280_humidity;BME280_pressure;Samples;Min_cycle;Max_cycle;Signal;HPM_P1;HPM_P2
2023/12/24 00:01:33;;;;;;;0.10;0.10;;;;;;;;;;6184305;23;20037;-79
2023/12/24 00:03:59;;;;;;;0.10;0.10;;;;;;;;;;6183590;23;20030;-78
2023/12/24 00:06:25;;;;;;;0.10;0.10;;;;;;;;;;6184450;23;20083;-77
2023/12/24 00:08:52;;;;;;;0.10;0.10;;;;;;;;;;6184409;23;20030;-78
2023/12/24 00:11:18;;;;;;;0.10;0.10;;;;;;;;;;6184431;23;20030;-78
2023/12/24 00:13:45;;;;;;;0.10;0.10;;;;;;;;;;6183736;23;20447;-77
2023/12/24 00:16:11;;;;;;;0.10;0.10;;;;;;;;;;6183998;23;20025;-78
2023/12/24 00:18:38;;;;;;;0.82;0.45;;;;;;;;;;6184122;23;20470;-79
2023/12/24 00:21:04;;;;;;;0.10;0.10;;;;;;;;;;6184252;23;20029;-78
2023/12/24 00:23:31;;;;;;;0.10;0.10;;;;;;;;;;6183389;23;20032;-78
2023/12/24 00:25:57;;;;;;;0.10;0.10;;;;;;;;;;6182430;23;20049;-77
2023/12/24 00:28:23;;;;;;;0.10;0.10;;;;;;;;;;6184516;23;20025;-78
2023/12/24 00:30:50;;;;;;;0.10;0.10;;;;;;;;;;6184249;23;20496;-79
2023/12/24 00:33:16;;;;;;;0.10;0.10;;;;;;;;;;6183653;23;20097;-78
2023/12/24 00:35:43;;;;;;;0.10;0.10;;;;;;;;;;6184362;23;20030;-78
2023/12/24 00:38:09;;;;;;;0.10;0.10;;;;;;;;;;6183947;23;20049;-78
2023/12/24 00:40:36;;;;;;;0.10;0.10;;;;;;;;;;6157869;23;20034;-77
2023/12/24 00:43:02;;;;;;;0.10;0.10;;;;;;;;;;6184108;23;20025;-78
2023/12/24 00:45:29;;;;;;;0.10;0.10;;;;;;;;;;6182284;23;20104;-79
2023/12/24 00:47:56;;;;;;;0.10;0.10;;;;;;;;;;6184093;23;20076;-78
2023/12/24 00:50:23;;;;;;;0.10;0.10;;;;;;;;;;6184715;23;20026;-78
2023/12/24 00:52:49;;;;;;;0.10;0.10;;;;;;;;;;6183431;23;20057;-78
2023/12/24 00:55:16;;;;;;;0.10;0.10;;;;;;;;;;6184206;23;20029;-78
2023/12/24 00:57:43;;;;;;;0.57;0.57;;;;;;;;;;6183963;23;20449;-77
2023/12/24 01:00:09;;;;;;;0.10;0.10;;;;;;;;;;6183953;23;20057;-78
2023/12/24 01:02:36;;;;;;;0.10;0.10;;;;;;;;;;6183964;23;20026;-77
2023/12/24 01:05:04;;;;;;;0.10;0.10;;;;;;;;;;6183758;23;20025;-79
2023/12/24 01:07:31;;;;;;;0.10;0.10;;;;;;;;;;6183323;23;20508;-78
2023/12/24 01:09:57;;;;;;;0.10;0.10;;;;;;;;;;6157648;23;20029;-77
2023/12/24 01:12:24;;;;;;;0.10;0.10;;;;;;;;;;6184714;23;20130;-78
2023/12/24 01:14:50;;;;;;;0.10;0.10;;;;;;;;;;6183697;23;20784;-78
2023/12/24 01:17:17;;;;;;;0.10;0.10;;;;;;;;;;6184159;23;20088;-79
2023/12/24 01:19:43;;;;;;;0.10;0.10;;;;;;;;;;6183934;23;20466;-79
2023/12/24 01:22:10;;;;;;;0.10;0.10;;;;;;;;;;6183920;23;20025;-79
2023/12/24 01:24:37;;;;;;;0.10;0.10;;;;;;;;;;6183932;23;20033;-79
2023/12/24 01:27:03;;;;;;;0.10;0.10;;;;;;;;;;6183492;23;20093;-79
2023/12/24 01:29:29;;;;;;;0.10;0.10;;;;;;;;;;6184639;23;20060;-79
2023/12/24 01:31:56;;;;;;;0.10;0.10;;;;;;;;;;6185191;23;20049;-79
2023/12/24 01:34:22;;;;;;;0.10;0.10;;;;;;;;;;6185662;23;20025;-79
2023/12/24 01:36:49;;;;;;;0.10;0.10;;;;;;;;;;6186382;23;20104;-79
2023/12/24 01:39:15;;;;;;;0.10;0.10;;;;;;;;;;6185663;23;20009;-79
2023/12/24 01:41:43;;;;;;;0.50;0.50;;;;;;;;;;6185439;23;20029;-79
2023/12/24 01:44:10;;;;;;;0.10;0.10;;;;;;;;;;6185561;23;20025;-79
2023/12/24 01:46:37;;;;;;;0.35;0.35;;;;;;;;;;6184972;23;20081;-79
2023/12/24 01:49:03;;;;;;;0.10;0.10;;;;;;;;;;6157423;23;20031;-78
2023/12/24 01:51:31;;;;;;;0.10;0.10;;;;;;;;;;6168408;23;20037;-78
2023/12/24 01:53:57;;;;;;;1.65;1.20;;;;;;;;;;6183615;23;20526;-78
2023/12/24 01:56:30;;;;;;;0.13;0.13;;;;;;;;;;6185026;23;20034;-78
2023/12/24 01:58:57;;;;;;;0.10;0.10;;;;;;;;;;6184191;23;20093;-79
2023/12/24 02:01:23;;;;;;;0.20;0.20;;;;;;;;;;6158595;23;20025;-78
2023/12/24 02:03:50;;;;;;;0.10;0.10;;;;;;;;;;6184326;23;20025;-78
2023/12/24 02:06:17;;;;;;;0.10;0.10;;;;;;;;;;6183235;23;20109;-78
2023/12/24 02:08:44;;;;;;;0.10;0.10;;;;;;;;;;6184196;23;20373;-78
2023/12/24 02:11:10;;;;;;;0.10;0.10;;;;;;;;;;6184387;23;20026;-78
2023/12/24 02:13:37;;;;;;;0.20;0.20;;;;;;;;;;6184331;23;20036;-78
2023/12/24 02:16:05;;;;;;;0.10;0.10;;;;;;;;;;6183724;23;20043;-78
2023/12/24 02:18:32;;;;;;;0.10;0.10;;;;;;;;;;6184342;23;20030;-79
2023/12/24 02:21:01;;;;;;;0.10;0.10;;;;;;;;;;6184618;23;20026;-78
2023/12/24 02:23:28;;;;;;;0.10;0.10;;;;;;;;;;6157194;23;20030;-78
2023/12/24 02:25:56;;;;;;;0.10;0.10;;;;;;;;;;6183927;23;20030;-78
2023/12/24 02:28:27;;;;;;;0.10;0.10;;;;;;;;;;6183661;23;20557;-78
2023/12/24 02:31:00;;;;;;;0.10;0.10;;;;;;;;;;6183758;23;20025;-79
2023/12/24 02:33:29;;;;;;;0.10;0.10;;;;;;;;;;6182850;23;20033;-78
2023/12/24 02:35:58;;;;;;;0.40;0.32;;;;;;;;;;6183494;23;20025;-78
2023/12/24 02:38:24;;;;;;;0.10;0.10;;;;;;;;;;6184431;23;20764;-78
2023/12/24 02:40:50;;;;;;;0.10;0.10;;;;;;;;;;6186205;23;20478;-78
2023/12/24 02:43:17;;;;;;;0.10;0.10;;;;;;;;;;6184882;23;20025;-78
2023/12/24 02:45:44;;;;;;;0.10;0.10;;;;;;;;;;6186122;23;20033;-78
2023/12/24 02:48:11;;;;;;;0.10;0.10;;;;;;;;;;6184401;23;20071;-79
2023/12/24 02:50:37;;;;;;;0.10;0.10;;;;;;;;;;6184965;23;20025;-79
2023/12/24 02:53:04;;;;;;;0.10;0.10;;;;;;;;;;6184875;23;20029;-79
2023/12/24 02:55:30;;;;;;;0.10;0.10;;;;;;;;;;6184471;23;20595;-78
2023/12/24 02:57:57;;;;;;;0.10;0.10;;;;;;;;;;6185667;23;20112;-78
2023/12/24 03:00:24;;;;;;;0.10;0.10;;;;;;;;;;6186726;23;20446;-78
2023/12/24 03:02:51;;;;;;;0.10;0.10;;;;;;;;;;6186235;23;20626;-79
2023/12/24 03:05:18;;;;;;;0.10;0.10;;;;;;;;;;6185321;23;20018;-79
2023/12/24 03:07:44;;;;;;;0.10;0.10;;;;;;;;;;6185820;23;20101;-78
2023/12/24 03:10:11;;;;;;;0.20;0.20;;;;;;;;;;6183463;23;20045;-79
2023/12/24 03:12:37;;;;;;;0.10;0.10;;;;;;;;;;6185871;23;20033;-78
2023/12/24 03:15:04;;;;;;;0.20;0.20;;;;;;;;;;6182850;23;20037;-79
2023/12/24 03:17:30;;;;;;;0.10;0.10;;;;;;;;;;6185357;23;20078;-79
2023/12/24 03:19:57;;;;;;;0.10;0.10;;;;;;;;;;6185734;23;20029;-79
2023/12/24 03:22:23;;;;;;;0.10;0.10;;;;;;;;;;6185772;23;20029;-79
2023/12/24 03:24:49;;;;;;;0.10;0.10;;;;;;;;;;6184898;23;20088;-78
2023/12/24 03:27:16;;;;;;;0.10;0.10;;;;;;;;;;6185898;23;20025;-78
2023/12/24 03:29:43;;;;;;;0.10;0.10;;;;;;;;;;6185365;23;20366;-79
2023/12/24 03:32:10;;;;;;;1.55;0.40;;;;;;;;;;6159717;23;20033;-78
2023/12/24 03:34:36;;;;;;;0.10;0.10;;;;;;;;;;6185837;23;20104;-79
2023/12/24 03:37:03;;;;;;;0.10;0.10;;;;;;;;;;6185850;23;20490;-79
2023/12/24 03:39:29;;;;;;;0.10;0.10;;;;;;;;;;6185996;23;20082;-78
2023/12/24 03:41:56;;;;;;;0.10;0.10;;;;;;;;;;6185094;23;20062;-78
2023/12/24 03:44:22;;;;;;;0.10;0.10;;;;;;;;;;6185335;23;20037;-79
2023/12/24 03:46:48;;;;;;;0.10;0.10;;;;;;;;;;6186004;23;20030;-78
2023/12/24 03:49:15;;;;;;;0.10;0.10;;;;;;;;;;6185296;23;20033;-78
2023/12/24 03:51:41;;;;;;;0.32;0.32;;;;;;;;;;6185213;23;20113;-79
2023/12/24 03:54:08;;;;;;;0.10;0.10;;;;;;;;;;6184721;23;20103;-78
2023/12/24 03:56:34;;;;;;;0.10;0.10;;;;;;;;;;6184331;23;20497;-79
2023/12/24 03:59:01;;;;;;;0.10;0.10;;;;;;;;;;6184640;23;20424;-78
2023/12/24 04:01:27;;;;;;;0.10;0.10;;;;;;;;;;6185435;23;20053;-79
2023/12/24 04:03:54;;;;;;;0.10;0.10;;;;;;;;;;6184727;23;20032;-78
2023/12/24 04:06:21;;;;;;;0.10;0.10;;;;;;;;;;6186863;23;20108;-78
2023/12/24 04:08:48;;;;;;;0.10;0.10;;;;;;;;;;6184031;23;20025;-79
2023/12/24 04:11:15;;;;;;;0.10;0.10;;;;;;;;;;6185288;23;20100;-79
2023/12/24 04:13:42;;;;;;;0.10;0.10;;;;;;;;;;6185525;23;20752;-79
2023/12/24 04:16:08;;;;;;;0.10;0.10;;;;;;;;;;6185924;23;20070;-78
2023/12/24 04:18:35;;;;;;;0.10;0.10;;;;;;;;;;6184992;23;20081;-78
2023/12/24 04:21:02;;;;;;;0.10;0.10;;;;;;;;;;6185630;23;20026;-79
2023/12/24 04:23:28;;;;;;;0.10;0.10;;;;;;;;;;6187102;23;20045;-79
2023/12/24 04:25:55;;;;;;;0.10;0.10;;;;;;;;;;6188039;23;20037;-79
2023/12/24 04:28:21;;;;;;;0.10;0.10;;;;;;;;;;6188673;23;20030;-79
2023/12/24 04:30:48;;;;;;;0.10;0.10;;;;;;;;;;6188283;23;20105;-79
2023/12/24 04:33:14;;;;;;;0.10;0.10;;;;;;;;;;6188771;23;20032;-79
2023/12/24 04:35:41;;;;;;;0.10;0.10;;;;;;;;;;6189327;23;20031;-79
2023/12/24 04:38:08;;;;;;;0.10;0.10;;;;;;;;;;6188129;23;20112;-79
2023/12/24 04:40:34;;;;;;;0.10;0.10;;;;;;;;;;6188390;23;20029;-78
2023/12/24 04:43:01;;;;;;;0.10;0.10;;;;;;;;;;6189051;23;20056;-79
2023/12/24 04:45:27;;;;;;;0.10;0.10;;;;;;;;;;6190896;23;20753;-79
2023/12/24 04:47:58;;;;;;;0.10;0.10;;;;;;;;;;6187343;23;20053;-79
2023/12/24 04:50:25;;;;;;;0.10;0.10;;;;;;;;;;6185659;23;20030;-79
2023/12/24 04:52:51;;;;;;;0.10;0.10;;;;;;;;;;6186582;23;20144;-79
2023/12/24 04:55:19;;;;;;;0.10;0.10;;;;;;;;;;6185676;23;20033;-79
2023/12/24 04:57:46;;;;;;;0.10;0.10;;;;;;;;;;6185036;23;20080;-79
2023/12/24 05:00:12;;;;;;;0.10;0.10;;;;;;;;;;6186039;23;20049;-79
2023/12/24 05:02:39;;;;;;;0.10;0.10;;;;;;;;;;6158613;23;20022;-79
2023/12/24 05:05:05;;;;;;;0.10;0.10;;;;;;;;;;6185303;23;20089;-78
2023/12/24 05:07:32;;;;;;;0.10;0.10;;;;;;;;;;6185238;23;20029;-79
2023/12/24 05:09:58;;;;;;;0.10;0.10;;;;;;;;;;6185675;23;20073;-79
2023/12/24 05:12:25;;;;;;;0.10;0.10;;;;;;;;;;6184000;23;20029;-79
2023/12/24 05:14:52;;;;;;;0.20;0.20;;;;;;;;;;6185471;23;20029;-79
2023/12/24 05:17:18;;;;;;;0.10;0.10;;;;;;;;;;6184908;23;20033;-79
2023/12/24 05:19:45;;;;;;;0.10;0.10;;;;;;;;;;6185074;23;20025;-79
2023/12/24 05:22:11;;;;;;;0.10;0.10;;;;;;;;;;6183896;23;20092;-79
2023/12/24 05:24:37;;;;;;;0.10;0.10;;;;;;;;;;6184837;23;20029;-79
2023/12/24 05:27:04;;;;;;;0.10;0.10;;;;;;;;;;6185082;23;20052;-79
2023/12/24 05:29:30;;;;;;;0.10;0.10;;;;;;;;;;6184888;23;20060;-79
2023/12/24 05:31:57;;;;;;;0.10;0.10;;;;;;;;;;6184592;23;20029;-79
2023/12/24 05:34:24;;;;;;;0.10;0.10;;;;;;;;;;6184964;23;20029;-79
2023/12/24 05:36:50;;;;;;;0.10;0.10;;;;;;;;;;6184852;23;20586;-79
2023/12/24 05:39:17;;;;;;;0.10;0.10;;;;;;;;;;6184995;23;20057;-79
2023/12/24 05:41:44;;;;;;;0.10;0.10;;;;;;;;;;6185227;23;20038;-79
2023/12/24 05:44:11;;;;;;;0.10;0.10;;;;;;;;;;6185299;23;20537;-79
2023/12/24 05:46:37;;;;;;;0.10;0.10;;;;;;;;;;6189241;23;20541;-79
2023/12/24 05:49:03;;;;;;;0.10;0.10;;;;;;;;;;6186656;23;20064;-79
2023/12/24 05:51:30;;;;;;;0.10;0.10;;;;;;;;;;6186668;23;20060;-79
2023/12/24 05:53:56;;;;;;;0.10;0.10;;;;;;;;;;6186951;23;20081;-79
2023/12/24 05:56:22;;;;;;;0.10;0.10;;;;;;;;;;6160408;23;20843;-79
2023/12/24 05:58:49;;;;;;;0.10;0.10;;;;;;;;;;6186287;23;20036;-79
2023/12/24 06:01:15;;;;;;;0.10;0.10;;;;;;;;;;6187533;23;20029;-79
2023/12/24 06:03:42;;;;;;;0.10;0.10;;;;;;;;;;6185950;23;20497;-79
2023/12/24 06:06:11;;;;;;;0.10;0.10;;;;;;;;;;6187579;23;20025;-79
2023/12/24 06:08:38;;;;;;;0.10;0.10;;;;;;;;;;6186111;23;20022;-79
2023/12/24 06:11:05;;;;;;;0.10;0.10;;;;;;;;;;6187173;23;20100;-79
2023/12/24 06:13:31;;;;;;;0.10;0.10;;;;;;;;;;6187810;23;20021;-79
2023/12/24 06:15:58;;;;;;;0.10;0.10;;;;;;;;;;6189686;23;20040;-79
2023/12/24 06:18:24;;;;;;;0.10;0.10;;;;;;;;;;6188550;23;20491;-80
2023/12/24 06:20:51;;;;;;;0.10;0.10;;;;;;;;;;6188730;23;21198;-79
2023/12/24 06:23:17;;;;;;;0.10;0.10;;;;;;;;;;6188315;23;20478;-79
2023/12/24 06:25:44;;;;;;;0.10;0.10;;;;;;;;;;6189146;23;20031;-79
2023/12/24 06:28:10;;;;;;;0.10;0.10;;;;;;;;;;6187584;23;20576;-79
2023/12/24 06:30:36;;;;;;;0.10;0.10;;;;;;;;;;6172406;23;20033;-79
2023/12/24 06:33:03;;;;;;;0.10;0.10;;;;;;;;;;6187958;23;20040;-79
2023/12/24 06:35:30;;;;;;;0.10;0.10;;;;;;;;;;6188077;23;20018;-79
2023/12/24 06:37:56;;;;;;;0.10;0.10;;;;;;;;;;6188555;23;20047;-79
2023/12/24 06:40:22;;;;;;;0.10;0.10;;;;;;;;;;6187102;23;20029;-79
2023/12/24 06:42:49;;;;;;;0.10;0.10;;;;;;;;;;6187639;23;20041;-79
2023/12/24 06:45:16;;;;;;;0.10;0.10;;;;;;;;;;6187408;23;20018;-79
2023/12/24 06:47:42;;;;;;;0.10;0.10;;;;;;;;;;6186678;23;20025;-79
2023/12/24 06:50:09;;;;;;;0.10;0.10;;;;;;;;;;6186639;23;20038;-79
2023/12/24 06:52:35;;;;;;;0.10;0.10;;;;;;;;;;6187105;23;20418;-79
2023/12/24 06:55:01;;;;;;;0.10;0.10;;;;;;;;;;6186927;23;20124;-79
2023/12/24 06:57:28;;;;;;;0.10;0.10;;;;;;;;;;6191721;22;20076;-80
2023/12/24 06:59:54;;;;;;;0.10;0.10;;;;;;;;;;6218532;23;20084;-79
2023/12/24 07:02:21;;;;;;;0.30;0.30;;;;;;;;;;6218713;23;20848;-80
2023/12/24 07:04:47;;;;;;;0.10;0.10;;;;;;;;;;6191681;23;20846;-80
2023/12/24 07:07:14;;;;;;;0.10;0.10;;;;;;;;;;6217572;23;20025;-78
2023/12/24 07:09:40;;;;;;;0.10;0.10;;;;;;;;;;6190367;23;20087;-79
2023/12/24 07:12:07;;;;;;;0.10;0.10;;;;;;;;;;6191684;23;20029;-80
2023/12/24 07:14:33;;;;;;;0.10;0.10;;;;;;;;;;6217348;23;20025;-80
2023/12/24 07:17:00;;;;;;;0.10;0.10;;;;;;;;;;6191064;23;20013;-77
2023/12/24 07:19:26;;;;;;;0.10;0.10;;;;;;;;;;6191838;23;20053;-80
2023/12/24 07:21:52;;;;;;;0.10;0.10;;;;;;;;;;6191448;23;20115;-78
2023/12/24 07:24:19;;;;;;;0.10;0.10;;;;;;;;;;6217205;23;20025;-78
2023/12/24 07:26:45;;;;;;;0.10;0.10;;;;;;;;;;6191563;23;20053;-80
2023/12/24 07:29:12;;;;;;;0.10;0.10;;;;;;;;;;6187551;23;20032;-80
2023/12/24 07:31:39;;;;;;;0.10;0.10;;;;;;;;;;6188812;23;20071;-78
2023/12/24 07:34:05;;;;;;;0.10;0.10;;;;;;;;;;6213869;23;20029;-78
2023/12/24 07:36:32;;;;;;;0.10;0.10;;;;;;;;;;6186905;23;20918;-80
2023/12/24 07:38:58;;;;;;;0.10;0.10;;;;;;;;;;6188296;23;20791;-78
2023/12/24 07:41:26;;;;;;;0.10;0.10;;;;;;;;;;6187818;23;20131;-80
2023/12/24 07:43:53;;;;;;;0.10;0.10;;;;;;;;;;6215655;23;20029;-81
2023/12/24 07:46:19;;;;;;;0.22;0.22;;;;;;;;;;6190472;23;20024;-80
2023/12/24 07:48:46;;;;;;;0.10;0.10;;;;;;;;;;6189557;23;20035;-81
2023/12/24 07:51:12;;;;;;;0.20;0.20;;;;;;;;;;6189235;23;20036;-79
2023/12/24 07:53:39;;;;;;;0.15;0.15;;;;;;;;;;6188755;23;20111;-80
2023/12/24 07:56:10;;;;;;;0.20;0.20;;;;;;;;;;6189800;23;20029;-80
2023/12/24 07:58:37;;;;;;;0.40;0.40;;;;;;;;;;6190324;23;20025;-79
2023/12/24 08:01:03;;;;;;;0.57;0.57;;;;;;;;;;6188943;23;20099;-82
2023/12/24 08:03:30;;;;;;;0.10;0.10;;;;;;;;;;6190300;23;20029;-80
2023/12/24 08:05:56;;;;;;;0.10;0.10;;;;;;;;;;6216277;22;20032;-82
2023/12/24 08:08:23;;;;;;;0.10;0.10;;;;;;;;;;6186663;23;20103;-81
2023/12/24 08:10:50;;;;;;;0.10;0.10;;;;;;;;;;6216098;23;20458;-82
2023/12/24 08:13:16;;;;;;;0.10;0.10;;;;;;;;;;6215714;23;20024;-81
2023/12/24 08:15:43;;;;;;;0.10;0.10;;;;;;;;;;6188227;23;20056;-83
2023/12/24 08:18:09;;;;;;;0.10;0.10;;;;;;;;;;6191032;23;20028;-82
2023/12/24 08:20:36;;;;;;;0.10;0.10;;;;;;;;;;6188532;23;20028;-82
2023/12/24 08:23:03;;;;;;;0.10;0.10;;;;;;;;;;6189248;23;20040;-83
2023/12/24 08:25:29;;;;;;;0.10;0.10;;;;;;;;;;6188952;23;20021;-83
2023/12/24 08:27:58;;;;;;;0.43;0.43;;;;;;;;;;6188011;23;20037;-83
2023/12/24 08:30:24;;;;;;;0.10;0.10;;;;;;;;;;6215281;23;20025;-82
2023/12/24 08:32:51;;;;;;;0.10;0.10;;;;;;;;;;6189177;23;20051;-82
2023/12/24 08:35:18;;;;;;;0.10;0.10;;;;;;;;;;6189317;23;20474;-83
2023/12/24 08:37:44;;;;;;;0.10;0.10;;;;;;;;;;6187525;23;20181;-82
2023/12/24 08:40:11;;;;;;;0.10;0.10;;;;;;;;;;6188698;23;20058;-81
2023/12/24 08:42:37;;;;;;;0.10;0.10;;;;;;;;;;6187578;23;20033;-82
2023/12/24 08:45:05;;;;;;;0.10;0.10;;;;;;;;;;6189648;23;20017;-83
2023/12/24 08:47:32;;;;;;;0.10;0.10;;;;;;;;;;6188070;23;20056;-81
2023/12/24 08:50:29;;;;;;;0.10;0.10;;;;;;;;;;6191834;23;20131;-82
2023/12/24 08:53:13;;;;;;;0.10;0.10;;;;;;;;;;6191475;23;20031;-82
2023/12/24 08:55:58;;;;;;;0.10;0.10;;;;;;;;;;6188861;22;20067;-82
2023/12/24 08:58:27;;;;;;;0.10;0.10;;;;;;;;;;6188960;23;20031;-81
2023/12/24 09:00:56;;;;;;;0.10;0.10;;;;;;;;;;6187856;23;20020;-82
2023/12/24 09:09:15;;;;;;;0.10;0.10;;;;;;;;;;6184693;23;20010;-80
2023/12/24 09:11:44;;;;;;;0.10;0.10;;;;;;;;;;6155920;23;20500;-80
2023/12/24 09:14:11;;;;;;;0.10;0.10;;;;;;;;;;6182522;23;20060;-80
2023/12/24 09:16:37;;;;;;;0.50;0.50;;;;;;;;;;6183054;23;20031;-80
2023/12/24 09:19:09;;;;;;;0.10;0.10;;;;;;;;;;6154405;23;20580;-80
2023/12/24 09:21:39;;;;;;;0.10;0.10;;;;;;;;;;6156640;23;20029;-81
2023/12/24 09:24:12;;;;;;;0.10;0.10;;;;;;;;;;6185370;23;20520;-81
2023/12/24 09:26:38;;;;;;;0.10;0.10;;;;;;;;;;6185711;23;20071;-81
2023/12/24 09:29:06;;;;;;;0.10;0.10;;;;;;;;;;6185801;23;20022;-80
2023/12/24 09:31:59;;;;;;;0.10;0.10;;;;;;;;;;6168947;23;20014;-80
2023/12/24 09:34:37;;;;;;;0.10;0.10;;;;;;;;;;6199743;23;20021;-80
2023/12/24 09:37:10;;;;;;;0.10;0.10;;;;;;;;;;6194670;23;20100;-81
2023/12/24 09:39:44;;;;;;;0.10;0.10;;;;;;;;;;6163002;23;21196;-80
2023/12/24 09:42:11;;;;;;;0.10;0.10;;;;;;;;;;6187279;23;20028;-81
2023/12/24 09:44:37;;;;;;;0.10;0.10;;;;;;;;;;6185536;23;20025;-80
2023/12/24 09:47:04;;;;;;;0.10;0.10;;;;;;;;;;6183960;23;20041;-80
2023/12/24 09:49:30;;;;;;;0.10;0.10;;;;;;;;;;6159597;23;20020;-80
2023/12/24 09:52:13;;;;;;;0.10;0.10;;;;;;;;;;6157349;23;20068;-80
2023/12/24 09:54:46;;;;;;;0.10;0.10;;;;;;;;;;6159880;23;20025;-80
2023/12/24 09:57:13;;;;;;;0.10;0.10;;;;;;;;;;6158203;23;20036;-80
2023/12/24 09:59:40;;;;;;;0.10;0.10;;;;;;;;;;6156717;23;20017;-80
2023/12/24 10:02:10;;;;;;;1.25;0.50;;;;;;;;;;6158075;23;20021;-80
2023/12/24 10:05:15;;;;;;;;;;;;;;;;;;;;;
2023/12/24 10:09:05;;;;;;;0.10;0.10;;;;;;;;;;6169165;23;20048;-81
2023/12/24 10:15:24;;;;;;;0.10;0.10;;;;;;;;;;6154252;23;20061;-80
2023/12/24 10:18:36;;;;;;;0.10;0.10;;;;;;;;;;6185433;23;20136;-81
2023/12/24 10:21:47;;;;;;;0.10;0.10;;;;;;;;;;6072272;23;20027;-81
2023/12/24 10:24:29;;;;;;;0.10;0.10;;;;;;;;;;6213748;23;20053;-81
2023/12/24 10:27:14;;;;;;;0.10;0.10;;;;;;;;;;6186509;23;20113;-80
2023/12/24 10:29:41;;;;;;;0.10;0.10;;;;;;;;;;6211672;23;20052;-81
2023/12/24 10:32:10;;;;;;;2.90;2.70;;;;;;;;;;6213008;23;20479;-80
2023/12/24 10:34:38;;;;;;;0.10;0.10;;;;;;;;;;6212501;23;20021;-81
2023/12/24 10:37:15;;;;;;;0.10;0.10;;;;;;;;;;6211212;23;20037;-80
2023/12/24 10:39:41;;;;;;;0.10;0.10;;;;;;;;;;6211425;23;20036;-80
2023/12/24 10:42:10;;;;;;;0.10;0.10;;;;;;;;;;6211203;23;20605;-80
2023/12/24 10:44:44;;;;;;;0.10;0.10;;;;;;;;;;6214641;23;20088;-80
2023/12/24 10:47:11;;;;;;;0.10;0.10;;;;;;;;;;6187811;23;20128;-80
2023/12/24 10:49:38;;;;;;;1.25;0.75;;;;;;;;;;6214113;23;20728;-81
2023/12/24 10:52:05;;;;;;;0.10;0.10;;;;;;;;;;6213033;23;20033;-81
2023/12/24 10:54:32;;;;;;;0.10;0.10;;;;;;;;;;6214986;23;20021;-81
2023/12/24 10:57:23;;;;;;;0.10;0.10;;;;;;;;;;6217660;23;20508;-88
2023/12/24 11:00:09;;;;;;;0.60;0.60;;;;;;;;;;6213377;22;20474;-85
2023/12/24 11:02:49;;;;;;;0.10;0.10;;;;;;;;;;6212657;23;20033;-83
2023/12/24 11:05:34;;;;;;;0.20;0.20;;;;;;;;;;6214548;23;20031;-83
2023/12/24 11:08:04;;;;;;;0.10;0.10;;;;;;;;;;6184085;23;20124;-81
2023/12/24 11:10:55;;;;;;;0.10;0.10;;;;;;;;;;6190051;23;20102;-82
2023/12/24 11:20:42;;;;;;;0.20;0.20;;;;;;;;;;6211699;22;20454;-84
2023/12/24 11:23:30;;;;;;;0.10;0.10;;;;;;;;;;6192073;23;20029;-84
2023/12/24 11:42:06;;;;;;;0.10;0.10;;;;;;;;;;6215559;22;20016;-83
2023/12/24 11:45:23;;;;;;;0.20;0.20;;;;;;;;;;6127620;23;20029;-83
2023/12/24 11:56:36;;;;;;;;;;;;;;;;;;;;;
2023/12/24 11:59:10;;;;;;;0.10;0.10;;;;;;;;;;6144861;23;20005;-82
2023/12/24 12:02:09;;;;;;;0.10;0.10;;;;;;;;;;6182808;23;20029;-82
2023/12/24 12:04:44;;;;;;;0.10;0.10;;;;;;;;;;6185476;23;20105;-81
2023/12/24 12:07:31;;;;;;;0.10;0.10;;;;;;;;;;6160009;23;20077;-81
2023/12/24 12:10:28;;;;;;;0.10;0.10;;;;;;;;;;6186420;23;20042;-82
2023/12/24 12:13:09;;;;;;;2.42;0.98;;;;;;;;;;6157181;23;20025;-79
2023/12/24 12:15:38;;;;;;;0.25;0.25;;;;;;;;;;6180938;23;20033;-80
2023/12/24 12:18:04;;;;;;;0.10;0.10;;;;;;;;;;6180169;23;20877;-81
2023/12/24 12:20:32;;;;;;;0.10;0.10;;;;;;;;;;6155093;23;20022;-80
2023/12/24 12:23:00;;;;;;;0.10;0.10;;;;;;;;;;6156465;23;20024;-82
2023/12/24 12:25:29;;;;;;;0.10;0.10;;;;;;;;;;6157001;23;20029;-81
2023/12/24 12:27:55;;;;;;;0.10;0.10;;;;;;;;;;6188078;23;20069;-82
2023/12/24 12:30:22;;;;;;;0.25;0.25;;;;;;;;;;6187780;23;20026;-82
2023/12/24 12:32:48;;;;;;;4.68;0.68;;;;;;;;;;6163297;23;20030;-82
2023/12/24 12:35:15;;;;;;;0.10;0.10;;;;;;;;;;6162204;23;20030;-82
2023/12/24 12:37:42;;;;;;;0.70;0.30;;;;;;;;;;6187718;23;20010;-80
2023/12/24 12:40:08;;;;;;;0.10;0.10;;;;;;;;;;6186904;23;20021;-82
2023/12/24 12:42:35;;;;;;;0.10;0.10;;;;;;;;;;6189541;23;20025;-81
2023/12/24 12:45:10;;;;;;;0.10;0.10;;;;;;;;;;6189376;23;20568;-82
2023/12/24 12:47:37;;;;;;;0.10;0.10;;;;;;;;;;6163844;23;20038;-84
2023/12/24 12:50:04;;;;;;;0.10;0.10;;;;;;;;;;6162019;23;20020;-82
2023/12/24 12:52:30;;;;;;;0.10;0.10;;;;;;;;;;6163732;23;20105;-83
2023/12/24 12:55:03;;;;;;;0.10;0.10;;;;;;;;;;6189543;23;20128;-83
2023/12/24 12:57:30;;;;;;;0.10;0.10;;;;;;;;;;6161730;22;20057;-85
2023/12/24 13:00:08;;;;;;;0.10;0.10;;;;;;;;;;6215647;23;20041;-84
2023/12/24 13:02:35;;;;;;;0.10;0.10;;;;;;;;;;6219022;23;20025;-84
2023/12/24 13:05:02;;;;;;;0.10;0.10;;;;;;;;;;6190389;23;20788;-85
2023/12/24 13:08:20;;;;;;;0.10;0.10;;;;;;;;;;6190354;23;20469;-84
2023/12/24 13:10:46;;;;;;;1.00;1.00;;;;;;;;;;6065566;23;20079;-84
2023/12/24 13:20:08;;;;;;;0.10;0.10;;;;;;;;;;6148516;23;20050;-84
2023/12/24 13:22:35;;;;;;;0.10;0.10;;;;;;;;;;6215066;23;20031;-83
2023/12/24 13:25:02;;;;;;;0.20;0.20;;;;;;;;;;6214304;23;20025;-84
2023/12/24 13:27:28;;;;;;;1.27;1.05;;;;;;;;;;6190761;23;20065;-82
2023/12/24 13:29:54;;;;;;;0.88;0.88;;;;;;;;;;6214592;23;20108;-84
2023/12/24 13:32:21;;;;;;;0.45;0.45;;;;;;;;;;6214090;23;20083;-84
2023/12/24 13:34:47;;;;;;;0.10;0.10;;;;;;;;;;6212502;23;20905;-85
2023/12/24 13:37:16;;;;;;;0.10;0.10;;;;;;;;;;6213828;22;20405;-83
2023/12/24 13:39:43;;;;;;;0.10;0.10;;;;;;;;;;6188426;23;20469;-84
2023/12/24 13:42:12;;;;;;;0.10;0.10;;;;;;;;;;6213095;23;20036;-85
2023/12/24 13:44:39;;;;;;;0.10;0.10;;;;;;;;;;6215150;23;20032;-82
2023/12/24 13:47:06;;;;;;;0.10;0.10;;;;;;;;;;6221758;23;20111;-85
2023/12/24 13:49:33;;;;;;;0.10;0.10;;;;;;;;;;6199100;23;20008;-84
2023/12/24 13:52:03;;;;;;;0.88;0.80;;;;;;;;;;6221253;23;20036;-83
2023/12/24 13:54:29;;;;;;;0.10;0.10;;;;;;;;;;6219231;23;20079;-82
2023/12/24 13:56:55;;;;;;;0.10;0.10;;;;;;;;;;6212339;22;20033;-84
2023/12/24 13:59:22;;;;;;;0.20;0.20;;;;;;;;;;6211296;23;20548;-85
2023/12/24 14:01:48;;;;;;;1.00;0.98;;;;;;;;;;6211844;23;20029;-85
2023/12/24 14:04:15;;;;;;;0.13;0.13;;;;;;;;;;6211829;23;20575;-85
2023/12/24 14:06:41;;;;;;;0.20;0.20;;;;;;;;;;6185882;23;20178;-84
2023/12/24 14:09:08;;;;;;;0.73;0.73;;;;;;;;;;6185063;23;20080;-84
2023/12/24 14:11:36;;;;;;;0.10;0.10;;;;;;;;;;6211419;23;20032;-84
2023/12/24 14:14:02;;;;;;;0.10;0.10;;;;;;;;;;6211756;23;20028;-84
2023/12/24 14:16:30;;;;;;;0.30;0.30;;;;;;;;;;6185952;23;20084;-85
2023/12/24 14:18:59;;;;;;;0.20;0.20;;;;;;;;;;6183415;23;20057;-83
2023/12/24 14:21:26;;;;;;;0.10;0.10;;;;;;;;;;6210646;23;20100;-83
2023/12/24 14:23:52;;;;;;;0.10;0.10;;;;;;;;;;6211984;23;20025;-84
2023/12/24 14:26:19;;;;;;;0.45;0.45;;;;;;;;;;6212497;23;20496;-85
2023/12/24 14:28:46;;;;;;;0.10;0.10;;;;;;;;;;6216681;23;20025;-85
2023/12/24 14:31:12;;;;;;;1.67;0.65;;;;;;;;;;6190769;23;20833;-85
2023/12/24 14:33:39;;;;;;;0.10;0.10;;;;;;;;;;6189291;23;20039;-84
2023/12/24 14:36:06;;;;;;;0.20;0.20;;;;;;;;;;6187842;22;20063;-84
2023/12/24 14:38:32;;;;;;;0.20;0.20;;;;;;;;;;6213623;23;20032;-85
2023/12/24 14:40:58;;;;;;;0.10;0.10;;;;;;;;;;6211961;23;20029;-85
2023/12/24 14:43:25;;;;;;;0.10;0.10;;;;;;;;;;6214178;23;20068;-86
2023/12/24 14:45:51;;;;;;;0.10;0.10;;;;;;;;;;6185957;23;20504;-83
2023/12/24 14:48:18;;;;;;;0.10;0.10;;;;;;;;;;6187140;23;20055;-84
2023/12/24 14:50:44;;;;;;;0.13;0.13;;;;;;;;;;6189216;23;20077;-80
2023/12/24 14:53:14;;;;;;;0.10;0.10;;;;;;;;;;6222243;23;20111;-83
2023/12/24 14:55:40;;;;;;;1.35;0.82;;;;;;;;;;6191089;23;20029;-81
2023/12/24 14:58:07;;;;;;;0.80;0.80;;;;;;;;;;6219288;23;20029;-81
2023/12/24 15:00:33;;;;;;;0.40;0.40;;;;;;;;;;6190821;23;20036;-82
2023/12/24 15:03:41;;;;;;;0.43;0.43;;;;;;;;;;6218200;23;20029;-81
2023/12/24 15:06:16;;;;;;;0.57;0.57;;;;;;;;;;6215781;23;20028;-79
2023/12/24 15:08:46;;;;;;;0.10;0.10;;;;;;;;;;6216424;23;20075;-79
2023/12/24 15:11:15;;;;;;;0.10;0.10;;;;;;;;;;6216606;23;20101;-81
2023/12/24 15:13:41;;;;;;;0.10;0.10;;;;;;;;;;6215484;23;20120;-79
2023/12/24 15:16:07;;;;;;;0.10;0.10;;;;;;;;;;6215396;22;20025;-79
2023/12/24 15:18:34;;;;;;;3.05;1.23;;;;;;;;;;6215330;23;20084;-82
2023/12/24 15:21:01;;;;;;;0.10;0.10;;;;;;;;;;6215337;23;20092;-82
2023/12/24 15:23:30;;;;;;;0.10;0.10;;;;;;;;;;6215742;23;20032;-78
2023/12/24 15:25:56;;;;;;;0.10;0.10;;;;;;;;;;6214832;22;20112;-82
2023/12/24 15:28:22;;;;;;;0.10;0.10;;;;;;;;;;6214023;23;20040;-81
2023/12/24 15:30:50;;;;;;;0.10;0.10;;;;;;;;;;6189828;23;20033;-82
2023/12/24 15:33:16;;;;;;;0.10;0.10;;;;;;;;;;6215456;23;20033;-81
2023/12/24 15:35:43;;;;;;;0.17;0.17;;;;;;;;;;6215492;22;20032;-80
2023/12/24 15:38:09;;;;;;;0.10;0.10;;;;;;;;;;6215852;23;20017;-80
2023/12/24 15:40:36;;;;;;;0.98;0.45;;;;;;;;;;6215556;23;20028;-81
2023/12/24 15:43:02;;;;;;;0.28;0.28;;;;;;;;;;6189364;23;20086;-82
2023/12/24 15:45:30;;;;;;;0.10;0.10;;;;;;;;;;6214380;23;20845;-82